West Baden Springs, IN (47469)

6:58 PM EST on December 10, 2016 (GMT -0500)
fL | | Change Station

Elev 758 ft 38.53 °N, 86.65 °W | Updated 10 minutes ago

Mostly Cloudy
Mostly Cloudy
27.5 °F
Feels Like 28 °F
N
0.0
Wind Variable Wind from South
Gusts 0.0 mph

Today
High -- | Low -- °F
--% Chance of Precip.
Yesterday
High -- | Low -- °F
Precip. -- in
Pressure 30.51 in
Visibility 10.0 miles
Clouds Clear
Windchill 28 °F
Dew Point 19 °F
Humidity 69%
Rainfall 0.00 in
Snow Depth Not available.
7:53 AM 5:25 PM
Waxing Gibbous, 87% visible
METAR KHNB 102356Z AUTO 15004KT 10SM CLR M03/M08 A3045 RMK AO2 SLP329 T10331078 10017 21039 58014 FZRANO
Pressure 30.51 in
Visibility 10.0 miles
Clouds Clear
Windchill 28 °F
Dew Point 19 °F
Humidity 69%
Rainfall 0.00 in
Snow Depth Not available.
7:53 AM 5:25 PM
Waxing Gibbous, 87% visible
METAR KHNB 102356Z AUTO 15004KT 10SM CLR M03/M08 A3045 RMK AO2 SLP329 T10331078 10017 21039 58014 FZRANO

10-Day Weather Forecast

Almanac

Astronomy

Dec. 10, 2016 Rise Set
Actual Time
Civil Twilight
Nautical Twilight
Astronomical Twilight
Moon
Length of Visible Light
Length of Day
Tomorrow will be .
, % of the Moon is Illuminated

Today's Extremes

State Highs State Lows

Community

WunderPhotos

Upload Photos

1,956,677 photos uploaded!

WunderBlog® & News

Nearby

Air Quality

  Air Quality AQ Index Pollutant
Not available.

Snow Depth

Station Depth Elevation

Earthquake Activity

City Distance Mag. Time & Date
Minimum magnitude displayed is 2.5.

Coastal Water Temperatures

Place Temperature

Stations

Nearby Weather Stations

Station Location Temp. Windchill Dew Point Humidity Wind Precip. Elev Updated Type
                   

Watches & Warnings

There are currently no watches in effect.